Caspian, MI (49915)

4:48 AM CDT on May 23, 2015 (GMT -0500)
Bates Tower | | Change Station
CLOSE
Current Station
Personal Weather Station
Location: Iron River, MI
Elevation: 1765 ft
Nearby Weather Stations

Elev 1765 ft 46.10 °N, 88.54 °W | Updated 5 minutes ago

Clear
Clear
45.6 °F
Feels Like 42 °F
N
6.0
Wind Variable Wind from WSW
Gusts 11.0 mph

Today
High -- | Low -- °F
--% Chance of Precip.
Yesterday
High -- | Low -- °F
Precip. -- in
5:14 AM 8:29 PM
Waxing Crescent, 28% visible
Pressure 30.24 in
Visibility 10.0 miles
Clouds Clear
Windchill 42 °F
Dew Point 33 °F
Humidity 62%
Rainfall 0.00 in
Snow Depth Not available.
UV 0 out of 12
Pollen 8.90 out of 12
Air Quality Not available.
Flu Activity Sporadic
METAR KLNL 230915Z AUTO 00000KT 10SM CLR 00/00 A3024 RMK AO2 T00000000

More Conditions Fewer Conditions

Pressure 30.24 in
Visibility 10.0 miles
Clouds Clear
Windchill 42 °F
Dew Point 33 °F
Humidity 62%
Rainfall 0.00 in
Snow Depth Not available.
UV 0 out of 12
Pollen 8.90 out of 12
Air Quality Not available.
Flu Activity Sporadic
METAR KLNL 230915Z AUTO 00000KT 10SM CLR 00/00 A3024 RMK AO2 T00000000

More Conditions Fewer Conditions

10-Day Weather Forecast

Almanac

Astronomy

May. 23, 2015 Rise Set
Actual Time
Civil Twilight
Nautical Twilight
Astronomical Twilight
Moon
Length of Visible Light
Length of Day
Tomorrow will be .
, % of the Moon is Illuminated

Today's Extremes

State Highs State Lows

Community

WunderPhotos

Upload Photos

1,823,405 photos uploaded!

WunderBlogs® & News

Nearby

Air Quality

  Air Quality AQ Index Pollutant
Not available.

Snow Depth

Station Depth Elevation

Earthquake Activity

City Distance Mag. Time & Date
Minimum magnitude displayed is 2.5.

Coastal Water Temperatures

Place Temperature

Stations

Nearby Weather Stations

Station Location Temp. Windchill Dew Point Humidity Wind Precip. Elev Updated Type